createdAt,value
2018-10-21T00:00:58.707Z,7.39
2018-10-21T00:03:27.830Z,7.35
2018-10-21T00:05:56.819Z,7.34
2018-10-21T00:08:25.818Z,7.28
2018-10-21T00:10:57.855Z,7.20
2018-10-21T00:13:26.861Z,7.17
2018-10-21T00:15:55.849Z,7.23
2018-10-21T00:18:25.182Z,7.15
2018-10-21T00:20:54.213Z,7.07
2018-10-21T00:23:23.194Z,7.09
2018-10-21T00:25:52.202Z,7.07
2018-10-21T00:28:21.193Z,7.05
2018-10-21T00:30:50.198Z,7.04
2018-10-21T00:33:19.178Z,6.94
2018-10-21T00:35:48.168Z,6.90
2018-10-21T00:38:17.184Z,6.81
2018-10-21T00:40:46.185Z,6.75
2018-10-21T00:43:15.198Z,6.76
2018-10-21T00:45:44.190Z,6.68
2018-10-21T00:48:13.199Z,6.64
2018-10-21T00:50:42.202Z,6.67
2018-10-21T00:53:11.204Z,6.72
2018-10-21T00:55:40.250Z,6.64
2018-10-21T00:58:09.262Z,6.62
2018-10-21T01:00:38.250Z,6.60
2018-10-21T01:03:07.302Z,6.57
2018-10-21T01:05:36.290Z,6.55
2018-10-21T01:08:05.695Z,6.52
2018-10-21T01:10:34.699Z,6.52
2018-10-21T01:13:03.670Z,6.56
2018-10-21T01:15:32.685Z,6.51
2018-10-21T01:18:01.664Z,6.46
2018-10-21T01:20:30.663Z,6.45
2018-10-21T01:22:59.634Z,6.43
2018-10-21T01:25:28.610Z,6.41
2018-10-21T01:27:57.612Z,6.43
2018-10-21T01:30:26.598Z,6.33
2018-10-21T01:32:55.610Z,6.33
2018-10-21T01:35:24.890Z,6.31
2018-10-21T01:37:54.028Z,6.33
2018-10-21T01:40:31.543Z,6.36
2018-10-21T01:43:00.807Z,6.40
2018-10-21T01:45:29.783Z,6.44
2018-10-21T01:47:59.839Z,6.48
2018-10-21T01:50:28.851Z,6.46
2018-10-21T01:52:58.861Z,6.48
2018-10-21T01:55:27.958Z,6.55
2018-10-21T01:57:57.694Z,6.53
2018-10-21T02:00:27.387Z,6.55
2018-10-21T02:02:57.252Z,6.65
2018-10-21T02:05:26.369Z,6.63
2018-10-21T02:07:55.681Z,6.62
2018-10-21T02:10:24.666Z,6.70
2018-10-21T02:12:53.653Z,6.75
2018-10-21T02:15:22.671Z,6.87
2018-10-21T02:17:51.683Z,6.95
2018-10-21T02:20:21.367Z,6.97
2018-10-21T02:22:50.724Z,6.98
2018-10-21T02:25:19.762Z,6.96
2018-10-21T02:27:49.515Z,6.95
2018-10-21T02:30:19.695Z,6.90
2018-10-21T02:32:49.398Z,6.87
2018-10-21T02:35:18.854Z,6.82
2018-10-21T02:37:48.011Z,6.77
2018-10-21T02:41:33.249Z,6.74
2018-10-21T02:44:02.646Z,6.73
2018-10-21T02:46:31.873Z,6.64
2018-10-21T02:49:02.683Z,6.71
2018-10-21T02:51:31.672Z,6.66
2018-10-21T02:54:00.675Z,6.66
2018-10-21T02:56:29.696Z,6.67
2018-10-21T02:58:58.778Z,6.70
2018-10-21T03:01:27.786Z,6.65
2018-10-21T03:03:56.805Z,6.71
2018-10-21T03:06:25.779Z,6.86
2018-10-21T03:08:54.836Z,7.00
2018-10-21T03:11:23.815Z,7.14
2018-10-21T03:13:52.826Z,7.29
2018-10-21T03:16:21.812Z,7.31
2018-10-21T03:18:50.850Z,7.33
2018-10-21T03:21:19.973Z,7.28
2018-10-21T03:23:48.841Z,7.35
2018-10-21T03:26:17.854Z,7.31
2018-10-21T03:28:46.847Z,7.30
2018-10-21T03:31:15.839Z,7.28
2018-10-21T03:33:45.044Z,7.30
2018-10-21T03:36:13.847Z,7.25
2018-10-21T03:38:42.871Z,7.23
2018-10-21T03:41:11.866Z,7.17
2018-10-21T03:43:40.859Z,7.22
2018-10-21T03:46:11.444Z,7.13
2018-10-21T03:48:40.363Z,7.06
2018-10-21T03:51:09.372Z,6.91
2018-10-21T03:53:38.343Z,6.79
2018-10-21T03:56:07.370Z,6.69
2018-10-21T03:58:36.387Z,6.69
2018-10-21T04:01:05.787Z,6.59
2018-10-21T04:03:34.815Z,6.62
2018-10-21T04:06:03.799Z,6.73
2018-10-21T04:08:32.783Z,6.83
2018-10-21T04:11:02.030Z,6.82
2018-10-21T04:13:31.006Z,6.79
2018-10-21T04:16:00.021Z,7.06
2018-10-21T04:18:29.010Z,7.33
2018-10-21T04:20:57.994Z,7.31
2018-10-21T04:23:27.007Z,7.38
2018-10-21T04:25:56.007Z,7.27
2018-10-21T04:28:25.006Z,7.21
2018-10-21T04:30:54.010Z,7.02
2018-10-21T04:33:53.138Z,6.94
2018-10-21T04:36:24.763Z,6.77
2018-10-21T04:40:08.071Z,6.71
2018-10-21T04:42:37.006Z,6.75
2018-10-21T04:45:06.674Z,6.71
2018-10-21T04:47:35.674Z,6.65
2018-10-21T04:50:04.993Z,6.62
2018-10-21T04:52:34.187Z,6.59
2018-10-21T04:55:13.050Z,6.43
2018-10-21T04:57:43.214Z,6.44
2018-10-21T05:00:16.946Z,6.47
2018-10-21T05:02:45.951Z,6.49
2018-10-21T05:05:15.470Z,6.49
2018-10-21T05:07:44.491Z,6.53
2018-10-21T05:10:21.831Z,6.46
2018-10-21T05:12:50.839Z,6.50
2018-10-21T05:15:20.135Z,6.66
2018-10-21T05:17:49.124Z,6.74
2018-10-21T05:20:18.935Z,7.13
2018-10-21T05:22:48.298Z,7.35
2018-10-21T05:25:17.309Z,7.41
2018-10-21T05:27:46.327Z,7.50
2018-10-21T05:30:15.379Z,7.58
2018-10-21T05:32:44.463Z,7.59
2018-10-21T05:35:14.482Z,7.52
2018-10-21T05:37:43.590Z,7.53
2018-10-21T05:40:13.885Z,7.56
2018-10-21T05:42:43.322Z,7.52
2018-10-21T05:45:12.344Z,7.51
2018-10-21T05:47:41.867Z,7.44
2018-10-21T05:50:11.968Z,7.45
2018-10-21T05:52:41.164Z,7.49
2018-10-21T05:55:10.722Z,7.44
2018-10-21T05:57:39.742Z,7.46
2018-10-21T06:00:11.879Z,7.50
2018-10-21T06:02:41.048Z,7.51
2018-10-21T06:05:21.334Z,7.49
2018-10-21T06:07:50.439Z,7.40
2018-10-21T06:10:19.421Z,7.39
2018-10-21T06:12:48.434Z,7.36
2018-10-21T06:15:17.438Z,7.23
2018-10-21T06:17:46.421Z,7.27
2018-10-21T06:20:18.920Z,7.23
2018-10-21T06:22:48.078Z,7.33
2018-10-21T06:25:17.084Z,7.38
2018-10-21T06:27:46.136Z,7.38
2018-10-21T06:30:15.099Z,7.49
2018-10-21T06:32:44.078Z,7.60
2018-10-21T06:35:13.059Z,7.65
2018-10-21T06:37:42.083Z,7.76
2018-10-21T06:40:12.118Z,7.70
2018-10-21T06:42:41.277Z,7.62
2018-10-21T06:45:11.418Z,7.51
2018-10-21T06:47:40.463Z,7.47
2018-10-21T06:50:16.219Z,7.42
2018-10-21T06:52:45.202Z,7.39
2018-10-21T06:55:14.292Z,7.45
2018-10-21T06:57:43.990Z,7.55
2018-10-21T07:00:12.996Z,7.67
2018-10-21T07:02:42.011Z,7.87
2018-10-21T07:05:22.890Z,8.17
2018-10-21T07:07:52.347Z,8.37
2018-10-21T07:10:21.552Z,8.59
2018-10-21T07:12:50.783Z,8.75
2018-10-21T07:15:20.341Z,8.85
2018-10-21T07:17:49.242Z,9.02
2018-10-21T07:20:18.258Z,9.13
2018-10-21T07:22:47.236Z,9.26
2018-10-21T07:25:16.246Z,9.41
2018-10-21T07:27:45.263Z,9.56
2018-10-21T07:30:14.379Z,9.64
2018-10-21T07:32:43.672Z,9.74
2018-10-21T07:35:13.710Z,9.81
2018-10-21T07:37:43.535Z,10.02
2018-10-21T07:40:13.303Z,10.08
2018-10-21T07:42:42.403Z,10.16
2018-10-21T07:45:11.545Z,10.23
2018-10-21T07:47:40.622Z,10.45
2018-10-21T07:50:09.618Z,10.57
2018-10-21T07:52:38.642Z,10.57
2018-10-21T07:55:07.687Z,10.60
2018-10-21T07:57:36.658Z,10.73
2018-10-21T08:00:05.723Z,10.87
2018-10-21T08:02:34.719Z,11.03
2018-10-21T08:05:03.809Z,11.09
2018-10-21T08:07:43.959Z,11.13
2018-10-21T08:10:13.049Z,11.18
2018-10-21T08:12:41.954Z,11.25
2018-10-21T08:15:11.064Z,11.40
2018-10-21T08:17:39.967Z,11.47
2018-10-21T08:20:08.970Z,11.52
2018-10-21T08:22:38.004Z,11.67
2018-10-21T08:25:07.175Z,11.80
2018-10-21T08:27:36.182Z,11.94
2018-10-21T08:30:05.643Z,12.05
2018-10-21T08:32:34.647Z,12.14
2018-10-21T08:35:03.683Z,12.31
2018-10-21T08:37:32.686Z,12.47
2018-10-21T08:40:01.779Z,12.37
2018-10-21T08:42:30.746Z,12.64
2018-10-21T08:44:59.780Z,12.79
2018-10-21T08:47:28.790Z,12.82
2018-10-21T08:49:57.914Z,12.92
2018-10-21T08:52:26.838Z,13.03
2018-10-21T08:54:55.902Z,13.09
2018-10-21T08:57:24.853Z,13.24
2018-10-21T08:59:53.868Z,13.36
2018-10-21T09:02:22.855Z,13.51
2018-10-21T09:04:51.855Z,13.65
2018-10-21T09:07:21.203Z,13.67
2018-10-21T09:09:50.273Z,13.77
2018-10-21T09:12:19.267Z,13.90
2018-10-21T09:14:48.724Z,14.15
2018-10-21T09:17:17.730Z,14.03
2018-10-21T09:19:46.920Z,14.18
2018-10-21T09:22:15.816Z,14.23
2018-10-21T09:24:44.791Z,14.31
2018-10-21T09:27:13.786Z,14.42
2018-10-21T09:29:42.815Z,14.59
2018-10-21T09:32:11.846Z,14.67
2018-10-21T09:34:40.851Z,14.73
2018-10-21T09:37:09.998Z,14.85
2018-10-21T09:39:38.969Z,14.92
2018-10-21T09:42:07.985Z,15.01
2018-10-21T09:44:37.143Z,15.08
2018-10-21T09:47:06.257Z,15.20
2018-10-21T09:49:35.301Z,15.18
2018-10-21T09:52:04.352Z,15.24
2018-10-21T09:54:33.303Z,15.50
2018-10-21T09:57:02.415Z,15.43
2018-10-21T09:59:31.415Z,15.63
2018-10-21T10:02:05.683Z,15.67
2018-10-21T10:04:34.679Z,15.80
2018-10-21T10:07:03.728Z,15.87
2018-10-21T10:09:32.871Z,15.96
2018-10-21T10:12:01.947Z,15.95
2018-10-21T10:14:30.971Z,16.12
2018-10-21T10:16:59.970Z,16.03
2018-10-21T10:19:29.002Z,16.10
2018-10-21T10:21:58.004Z,16.27
2018-10-21T10:24:26.984Z,16.38
2018-10-21T10:26:55.998Z,16.59
2018-10-21T10:29:25.014Z,16.80
2018-10-21T10:31:54.034Z,16.70
2018-10-21T10:34:23.065Z,16.56
2018-10-21T10:36:52.067Z,16.58
2018-10-21T10:39:21.094Z,16.72
2018-10-21T10:41:50.169Z,17.00
2018-10-21T10:44:19.110Z,16.90
2018-10-21T10:46:48.102Z,16.99
2018-10-21T10:49:17.166Z,16.98
2018-10-21T10:51:46.104Z,17.02
2018-10-21T10:54:15.199Z,17.07
2018-10-21T10:56:44.222Z,17.09
2018-10-21T10:59:13.218Z,16.94
2018-10-21T11:01:42.219Z,17.11
2018-10-21T11:04:11.339Z,17.34
2018-10-21T11:06:40.255Z,17.34
2018-10-21T11:09:10.672Z,17.36
2018-10-21T11:11:39.668Z,17.19
2018-10-21T11:14:08.714Z,17.45
2018-10-21T11:16:37.738Z,17.73
2018-10-21T11:19:06.783Z,17.56
2018-10-21T11:21:35.795Z,17.47
2018-10-21T11:24:04.858Z,17.56
2018-10-21T11:26:33.867Z,17.43
2018-10-21T11:29:02.901Z,17.61
2018-10-21T11:31:31.965Z,17.81
2018-10-21T11:34:01.022Z,17.92
2018-10-21T11:36:30.050Z,17.74
2018-10-21T11:38:59.022Z,17.96
2018-10-21T11:41:28.050Z,18.07
2018-10-21T11:43:57.053Z,18.04
2018-10-21T11:46:26.112Z,18.10
2018-10-21T11:48:55.105Z,18.05
2018-10-21T11:51:24.079Z,18.11
2018-10-21T11:53:56.270Z,18.06
2018-10-21T11:56:25.286Z,18.23
2018-10-21T11:58:54.341Z,18.07
2018-10-21T12:01:23.335Z,17.98
2018-10-21T12:03:52.377Z,18.17
2018-10-21T12:06:21.390Z,18.25
2018-10-21T12:08:50.414Z,18.22
2018-10-21T12:11:19.434Z,18.18
2018-10-21T12:13:48.450Z,18.41
2018-10-21T12:16:17.556Z,18.47
2018-10-21T12:18:46.470Z,18.54
2018-10-21T12:21:15.459Z,18.61
2018-10-21T12:23:44.491Z,18.50
2018-10-21T12:26:13.598Z,18.55
2018-10-21T12:28:42.599Z,18.57
2018-10-21T12:31:11.831Z,18.67
2018-10-21T12:33:43.081Z,18.68
2018-10-21T12:36:12.952Z,18.61
2018-10-21T12:38:42.086Z,18.61
2018-10-21T12:41:11.851Z,18.59
2018-10-21T12:43:41.493Z,18.33
2018-10-21T12:46:10.739Z,18.42
2018-10-21T12:48:39.778Z,18.53
2018-10-21T12:51:08.831Z,18.65
2018-10-21T12:53:37.811Z,18.57
2018-10-21T12:56:08.361Z,18.64
2018-10-21T12:58:37.686Z,18.54
2018-10-21T13:01:07.172Z,18.62
2018-10-21T13:03:36.100Z,18.81
2018-10-21T13:06:05.203Z,18.81
2018-10-21T13:08:34.292Z,18.74
2018-10-21T13:11:03.357Z,18.75
2018-10-21T13:13:32.348Z,18.75
2018-10-21T13:16:02.024Z,18.80
2018-10-21T13:18:30.967Z,18.62
2018-10-21T13:21:01.434Z,18.52
2018-10-21T13:23:30.422Z,18.63
2018-10-21T13:25:59.417Z,18.53
2018-10-21T13:28:28.522Z,18.50
2018-10-21T13:30:57.550Z,18.29
2018-10-21T13:33:26.539Z,18.23
2018-10-21T13:35:55.555Z,18.29
2018-10-21T13:38:24.551Z,18.31
2018-10-21T13:40:53.579Z,18.37
2018-10-21T13:43:22.606Z,18.53
2018-10-21T13:45:51.629Z,18.42
2018-10-21T13:48:20.607Z,18.49
2018-10-21T13:50:49.594Z,18.46
2018-10-21T13:53:18.628Z,18.34
2018-10-21T13:55:47.634Z,18.17
2018-10-21T13:58:16.669Z,18.35
2018-10-21T14:00:45.774Z,18.44
2018-10-21T14:03:14.682Z,18.15
2018-10-21T14:05:43.670Z,18.28
2018-10-21T14:08:12.702Z,18.07
2018-10-21T14:10:41.825Z,18.10
2018-10-21T14:13:10.941Z,18.05
2018-10-21T14:15:39.992Z,17.97
2018-10-21T14:18:09.038Z,17.89
2018-10-21T14:20:38.075Z,18.03
2018-10-21T14:23:07.102Z,17.83
2018-10-21T14:25:36.223Z,17.81
2018-10-21T14:28:05.387Z,17.84
2018-10-21T14:30:34.524Z,17.75
2018-10-21T14:33:03.554Z,17.79
2018-10-21T14:35:32.566Z,17.71
2018-10-21T14:38:01.655Z,17.66
2018-10-21T14:40:30.688Z,17.66
2018-10-21T14:42:59.681Z,17.65
2018-10-21T14:45:28.768Z,17.54
2018-10-21T14:47:57.772Z,17.42
2018-10-21T14:50:27.059Z,17.39
2018-10-21T14:52:56.082Z,17.30
2018-10-21T14:55:25.134Z,17.28
2018-10-21T14:57:54.293Z,17.18
2018-10-21T15:00:23.506Z,17.25
2018-10-21T15:02:52.453Z,17.33
2018-10-21T15:05:21.821Z,17.29
2018-10-21T15:07:50.802Z,17.14
2018-10-21T15:10:19.926Z,17.08
2018-10-21T15:12:48.846Z,16.93
2018-10-21T15:15:17.871Z,16.93
2018-10-21T15:17:46.872Z,16.91
2018-10-21T15:20:15.927Z,16.83
2018-10-21T15:22:44.949Z,16.75
2018-10-21T15:25:14.144Z,16.60
2018-10-21T15:27:43.126Z,16.58
2018-10-21T15:30:12.572Z,16.49
2018-10-21T15:32:41.775Z,16.39
2018-10-21T15:35:10.872Z,16.38
2018-10-21T15:37:39.898Z,16.40
2018-10-21T15:40:09.991Z,16.29
2018-10-21T15:42:39.042Z,16.17
2018-10-21T15:45:09.988Z,16.02
2018-10-21T15:47:39.019Z,15.92
2018-10-21T15:50:08.550Z,15.82
2018-10-21T15:52:37.565Z,15.66
2018-10-21T15:55:07.275Z,15.48
2018-10-21T15:57:36.286Z,15.30
2018-10-21T16:00:07.415Z,15.20
2018-10-21T16:02:36.703Z,15.08
2018-10-21T16:05:06.448Z,14.93
2018-10-21T16:07:35.487Z,14.79
2018-10-21T16:10:04.538Z,14.71
2018-10-21T16:12:33.505Z,14.54
2018-10-21T16:15:02.518Z,14.49
2018-10-21T16:17:31.531Z,14.27
2018-10-21T16:20:00.567Z,14.11
2018-10-21T16:22:29.559Z,13.88
2018-10-21T16:24:58.677Z,13.80
2018-10-21T16:27:27.666Z,13.69
2018-10-21T16:29:56.715Z,13.50
2018-10-21T16:32:25.821Z,13.37
2018-10-21T16:34:54.768Z,13.26
2018-10-21T16:37:23.825Z,13.19
2018-10-21T16:39:52.786Z,12.97
2018-10-21T16:42:21.831Z,12.85
2018-10-21T16:44:50.974Z,12.77
2018-10-21T16:47:20.050Z,12.56
2018-10-21T16:49:49.058Z,12.46
2018-10-21T16:52:18.068Z,12.27
2018-10-21T16:54:47.486Z,12.17
2018-10-21T16:57:16.639Z,12.13
2018-10-21T16:59:45.667Z,12.00
2018-10-21T17:02:14.621Z,11.99
2018-10-21T17:04:43.634Z,11.95
2018-10-21T17:07:12.796Z,11.82
2018-10-21T17:09:41.893Z,11.76
2018-10-21T17:12:11.571Z,11.81
2018-10-21T17:14:41.794Z,11.75
2018-10-21T17:17:10.885Z,11.64
2018-10-21T17:19:39.842Z,11.60
2018-10-21T17:22:08.866Z,11.54
2018-10-21T17:24:37.993Z,11.54
2018-10-21T17:27:06.974Z,11.43
2018-10-21T17:29:36.026Z,11.38
2018-10-21T17:32:05.047Z,11.35
2018-10-21T17:34:34.054Z,11.38
2018-10-21T17:37:03.188Z,11.34
2018-10-21T17:39:32.152Z,11.39
2018-10-21T17:42:01.972Z,11.35
2018-10-21T17:44:31.080Z,11.40
2018-10-21T17:47:04.519Z,11.50
2018-10-21T17:49:34.401Z,11.67
2018-10-21T17:52:03.547Z,11.77
2018-10-21T17:54:32.530Z,11.75
2018-10-21T17:57:02.046Z,11.88
2018-10-21T17:59:31.076Z,11.96
2018-10-21T18:02:00.074Z,12.16
2018-10-21T18:04:29.103Z,12.08
2018-10-21T18:06:58.159Z,12.06
2018-10-21T18:09:27.151Z,12.19
2018-10-21T18:11:56.200Z,12.16
2018-10-21T18:14:25.267Z,12.16
2018-10-21T18:16:54.261Z,12.15
2018-10-21T18:19:23.247Z,12.12
2018-10-21T18:21:52.250Z,12.06
2018-10-21T18:24:21.255Z,12.06
2018-10-21T18:26:50.370Z,12.05
2018-10-21T18:29:19.390Z,12.00
2018-10-21T18:31:48.390Z,12.02
2018-10-21T18:34:17.515Z,11.99
2018-10-21T18:36:46.410Z,12.01
2018-10-21T18:39:15.402Z,11.98
2018-10-21T18:41:44.438Z,11.98
2018-10-21T18:44:13.424Z,11.94
2018-10-21T18:46:42.447Z,11.83
2018-10-21T18:49:11.495Z,11.79
2018-10-21T18:51:40.575Z,11.75
2018-10-21T18:54:09.591Z,11.73
2018-10-21T18:56:38.600Z,11.75
2018-10-21T18:59:07.711Z,11.74
2018-10-21T19:01:36.759Z,11.74
2018-10-21T19:04:05.889Z,11.66
2018-10-21T19:06:34.927Z,11.58
2018-10-21T19:09:05.239Z,11.62
2018-10-21T19:11:34.272Z,11.62
2018-10-21T19:14:03.280Z,11.62
2018-10-21T19:16:32.383Z,11.64
2018-10-21T19:19:02.289Z,11.64
2018-10-21T19:21:31.275Z,11.62
2018-10-21T19:24:00.256Z,11.56
2018-10-21T19:26:29.268Z,11.52
2018-10-21T19:28:58.270Z,11.52
2018-10-21T19:31:27.259Z,11.54
2018-10-21T19:33:56.411Z,11.54
2018-10-21T19:36:25.366Z,11.57
2018-10-21T19:38:54.390Z,11.62
2018-10-21T19:41:23.547Z,11.55
2018-10-21T19:43:53.522Z,11.53
2018-10-21T19:46:22.544Z,11.57
2018-10-21T19:48:51.542Z,11.58
2018-10-21T19:51:20.720Z,11.55
2018-10-21T19:53:49.726Z,11.54
2018-10-21T19:56:18.739Z,11.61
2018-10-21T19:58:47.746Z,11.59
2018-10-21T20:01:17.065Z,11.54
2018-10-21T20:03:46.185Z,11.59
2018-10-21T20:06:15.200Z,11.63
2018-10-21T20:08:44.190Z,11.62
2018-10-21T20:11:13.190Z,11.65
2018-10-21T20:13:42.194Z,11.61
2018-10-21T20:16:11.225Z,11.68
2018-10-21T20:18:40.218Z,11.64
2018-10-21T20:21:09.249Z,11.69
2018-10-21T20:23:38.259Z,11.71
2018-10-21T20:26:07.357Z,11.68
2018-10-21T20:28:36.520Z,11.63
2018-10-21T20:31:05.793Z,11.57
2018-10-21T20:33:34.883Z,11.57
2018-10-21T20:36:03.818Z,11.59
2018-10-21T20:38:32.842Z,11.55
2018-10-21T20:41:01.871Z,11.35
2018-10-21T20:43:30.878Z,11.28
2018-10-21T20:45:59.938Z,11.31
2018-10-21T20:48:28.890Z,11.29
2018-10-21T20:50:58.084Z,11.26
2018-10-21T20:53:27.046Z,11.25
2018-10-21T20:55:56.050Z,11.25
2018-10-21T20:58:25.081Z,11.20
2018-10-21T21:00:54.026Z,11.19
2018-10-21T21:03:23.035Z,11.20
2018-10-21T21:05:52.058Z,11.31
2018-10-21T21:08:21.103Z,11.43
2018-10-21T21:10:50.058Z,11.51
2018-10-21T21:13:19.162Z,11.51
2018-10-21T21:15:48.163Z,11.56
2018-10-21T21:18:17.246Z,11.44
2018-10-21T21:20:46.256Z,11.64
2018-10-21T21:23:15.175Z,11.66
2018-10-21T21:25:44.190Z,11.57
2018-10-21T21:28:13.243Z,11.56
2018-10-21T21:30:42.222Z,11.66
2018-10-21T21:33:11.203Z,11.65
2018-10-21T21:35:40.193Z,11.66
2018-10-21T21:38:09.245Z,11.57
2018-10-21T21:40:38.250Z,11.56
2018-10-21T21:43:07.301Z,11.55
2018-10-21T21:45:36.265Z,11.56
2018-10-21T21:48:05.344Z,11.62
2018-10-21T21:50:34.262Z,11.59
2018-10-21T21:53:03.287Z,11.53
2018-10-21T21:55:32.267Z,11.54
2018-10-21T21:58:01.301Z,11.56
2018-10-21T22:00:30.274Z,11.54
2018-10-21T22:02:59.274Z,11.46
2018-10-21T22:05:28.327Z,11.49
2018-10-21T22:07:57.322Z,11.52
2018-10-21T22:10:26.331Z,11.51
2018-10-21T22:12:55.350Z,11.53
2018-10-21T22:15:24.350Z,11.59
2018-10-21T22:17:53.358Z,11.52
2018-10-21T22:20:22.382Z,11.47
2018-10-21T22:22:51.415Z,11.52
2018-10-21T22:25:20.407Z,11.45
2018-10-21T22:27:49.393Z,11.47
2018-10-21T22:30:18.432Z,11.50
2018-10-21T22:32:47.493Z,11.59
2018-10-21T22:35:16.502Z,11.64
2018-10-21T22:37:45.518Z,11.67
2018-10-21T22:40:14.699Z,11.61
2018-10-21T22:42:43.727Z,11.56
2018-10-21T22:45:12.731Z,11.54
2018-10-21T22:47:41.756Z,11.49
2018-10-21T22:50:11.808Z,11.46
2018-10-21T22:52:41.335Z,11.38
2018-10-21T22:55:10.350Z,11.25
2018-10-21T22:57:39.603Z,11.10
2018-10-21T23:00:09.429Z,11.03
2018-10-21T23:02:38.402Z,10.87
2018-10-21T23:05:08.024Z,10.74
2018-10-21T23:07:37.510Z,10.64
2018-10-21T23:10:06.579Z,10.54
2018-10-21T23:12:35.518Z,10.44
2018-10-21T23:15:04.634Z,10.37
2018-10-21T23:17:33.863Z,10.30
2018-10-21T23:20:02.891Z,10.24
2018-10-21T23:22:31.895Z,10.18
2018-10-21T23:25:01.042Z,10.05
2018-10-21T23:27:30.029Z,9.91
2018-10-21T23:29:59.048Z,9.86
2018-10-21T23:32:28.024Z,9.78
2018-10-21T23:34:57.008Z,9.69
2018-10-21T23:37:26.023Z,9.65
2018-10-21T23:39:55.006Z,9.68
2018-10-21T23:42:24.006Z,9.62
2018-10-21T23:44:53.018Z,9.45
2018-10-21T23:47:22.022Z,9.35
2018-10-21T23:49:51.045Z,9.23
2018-10-21T23:52:20.317Z,9.07
2018-10-21T23:54:49.334Z,9.09
2018-10-21T23:57:18.334Z,9.01
2018-10-21T23:59:47.346Z,8.85
